Satisfaction — WDF7649 — position and weather

sailwx.info

Track history (hours):
 
Tides and Currents Weather Stations Pressure Air Temp Water Temp Dewpoint Dewpoint Depression Visibility Wind Speed Wind Dir Waves Ship Positions

Satisfaction

Owner: Foley, Michael W, Redmond, WA. More information available from US FCC via Universal Licensing System and Coast Guard Vessel Documentation Center.

Last reported at 2016-Jun-23 23:18 UTC. Time now 2016-Jun-25 12:27 UTC.
Position N 47°39' W 122°12'.

Length 16 m.

Type: Pleasure craft. MMSI: 367486660.

Date/timePositionNaut miles runAvg speedWind from/ knotsBaromVisibWave heightAir tempDewpointWater temp
2016-Jun-23 23:18N 47°39' W 122°12'0 0.0
2016-Jun-23 21:18N 47°39' W 122°12'0 0.0
2016-Jun-23 19:15N 47°39' W 122°12'  
2016-Jun-21 07:12N 47°39' W 122°12'0 0.0
2016-Jun-19 23:21N 47°39' W 122°12'0 0.0
2016-Jun-19 22:27N 47°39' W 122°12'0 0.0
2016-Jun-19 21:21N 47°39' W 122°12'0 0.0
2016-Jun-19 20:30N 47°39' W 122°12'0 0.0
2016-Jun-19 18:15N 47°39' W 122°12'0 0.0
2016-Jun-19 12:12N 47°39' W 122°12'3 0.2
2016-Jun-18 19:23N 47°39' W 122°17'5 5.4
2016-Jun-18 18:32N 47°40' W 122°24'2 2.3
2016-Jun-18 17:33N 47°42' W 122°25'1313.2
2016-Jun-18 16:33N 47°55' W 122°21'5 0.1
2016-Jun-16 20:33N 48°00' W 122°21'8 7.9
2016-Jun-16 19:33N 47°57' W 122°32'3 0.1
2016-Jun-15 22:12N 47°57' W 122°36'914.5
2016-Jun-15 21:33N 47°49' W 122°28'9 9.3
2016-Jun-15 20:33N 47°40' W 122°24'2 2.3
2016-Jun-15 19:33N 47°39' W 122°21'6 2.4
2016-Jun-15 17:13N 47°39' W 122°12'0 0.0
2016-Jun-15 14:04N 47°39' W 122°12'0 0.0
2016-Jun-15 13:16N 47°39' W 122°12'0 0.0
2016-Jun-15 12:16N 47°39' W 122°12'0 0.0
2016-Jun-15 10:22N 47°39' W 122°12'0 0.0
2016-Jun-15 08:04N 47°39' W 122°12'0 0.0
2016-Jun-15 03:07N 47°39' W 122°12'0 0.0
2016-Jun-15 02:25N 47°39' W 122°12'0 0.0
2016-Jun-15 01:19N 47°39' W 122°12'0 0.0
2016-Jun-15 00:22N 47°39' W 122°12'0 0.0
2016-Jun-14 23:28N 47°39' W 122°12'0 0.0
2016-Jun-14 21:22N 47°39' W 122°12'0 0.0
2016-Jun-14 19:28N 47°39' W 122°12'0 0.0
2016-Jun-14 18:28N 47°39' W 122°12'0 0.0
2016-Jun-14 17:28N 47°39' W 122°12'0 0.0
2016-Jun-14 16:31N 47°39' W 122°12'0 0.0
2016-Jun-14 15:28N 47°39' W 122°12'0 0.0
2016-Jun-14 14:28N 47°39' W 122°12'0 0.0
2016-Jun-14 13:31N 47°39' W 122°12'0 0.0
2016-Jun-14 12:19N 47°39' W 122°12'0 0.0
2016-Jun-14 11:22N 47°39' W 122°12'0 0.0
2016-Jun-14 10:25N 47°39' W 122°12'0 0.0
2016-Jun-14 09:10N 47°39' W 122°12'0 0.0
2016-Jun-14 08:31N 47°39' W 122°12'0 0.0
2016-Jun-14 07:28N 47°39' W 122°12'0 0.0
2016-Jun-14 04:28N 47°39' W 122°12'0 0.0
2016-Jun-14 03:25N 47°39' W 122°12'0 0.0
2016-Jun-14 02:31N 47°39' W 122°12'0 0.0
2016-Jun-14 01:31N 47°39' W 122°12'0 0.0
2016-Jun-14 00:19N 47°39' W 122°12'0 0.0
2016-Jun-13 23:31N 47°39' W 122°12'  
Track history (hours):
 
Tides and Currents Weather Stations Pressure Air Temp Water Temp Dewpoint Dewpoint Depression Visibility Wind Speed Wind Dir Waves Ship Positions

Satisfaction

Owner: Foley, Michael W, Redmond, WA. More information available from US FCC via Universal Licensing System and Coast Guard Vessel Documentation Center.

Last reported at 2016-Jun-23 23:18 UTC. Time now 2016-Jun-25 12:27 UTC.
Position N 47°39' W 122°12'.

Length 16 m.

Type: Pleasure craft. MMSI: 367486660.

Date/timePositionNaut miles runAvg speedWind from/ knotsBaromVisibWave heightAir tempDewpointWater temp
2016-Jun-23 23:18N 47°39' W 122°12'0 0.0
2016-Jun-23 21:18N 47°39' W 122°12'0 0.0
2016-Jun-23 19:15N 47°39' W 122°12'  
2016-Jun-21 07:12N 47°39' W 122°12'0 0.0
2016-Jun-19 23:21N 47°39' W 122°12'0 0.0
2016-Jun-19 22:27N 47°39' W 122°12'0 0.0
2016-Jun-19 21:21N 47°39' W 122°12'0 0.0
2016-Jun-19 20:30N 47°39' W 122°12'0 0.0
2016-Jun-19 18:15N 47°39' W 122°12'0 0.0
2016-Jun-19 12:12N 47°39' W 122°12'3 0.2
2016-Jun-18 19:23N 47°39' W 122°17'5 5.4
2016-Jun-18 18:32N 47°40' W 122°24'2 2.3
2016-Jun-18 17:33N 47°42' W 122°25'1313.2
2016-Jun-18 16:33N 47°55' W 122°21'5 0.1
2016-Jun-16 20:33N 48°00' W 122°21'8 7.9
2016-Jun-16 19:33N 47°57' W 122°32'3 0.1
2016-Jun-15 22:12N 47°57' W 122°36'914.5
2016-Jun-15 21:33N 47°49' W 122°28'9 9.3
2016-Jun-15 20:33N 47°40' W 122°24'2 2.3
2016-Jun-15 19:33N 47°39' W 122°21'6 2.4
2016-Jun-15 17:13N 47°39' W 122°12'0 0.0
2016-Jun-15 14:04N 47°39' W 122°12'0 0.0
2016-Jun-15 13:16N 47°39' W 122°12'0 0.0
2016-Jun-15 12:16N 47°39' W 122°12'0 0.0
2016-Jun-15 10:22N 47°39' W 122°12'0 0.0
2016-Jun-15 08:04N 47°39' W 122°12'0 0.0
2016-Jun-15 03:07N 47°39' W 122°12'0 0.0
2016-Jun-15 02:25N 47°39' W 122°12'0 0.0
2016-Jun-15 01:19N 47°39' W 122°12'0 0.0
2016-Jun-15 00:22N 47°39' W 122°12'0 0.0
2016-Jun-14 23:28N 47°39' W 122°12'0 0.0
2016-Jun-14 21:22N 47°39' W 122°12'0 0.0
2016-Jun-14 19:28N 47°39' W 122°12'0 0.0
2016-Jun-14 18:28N 47°39' W 122°12'0 0.0
2016-Jun-14 17:28N 47°39' W 122°12'0 0.0
2016-Jun-14 16:31N 47°39' W 122°12'0 0.0
2016-Jun-14 15:28N 47°39' W 122°12'0 0.0
2016-Jun-14 14:28N 47°39' W 122°12'0 0.0
2016-Jun-14 13:31N 47°39' W 122°12'0 0.0
2016-Jun-14 12:19N 47°39' W 122°12'0 0.0
2016-Jun-14 11:22N 47°39' W 122°12'0 0.0
2016-Jun-14 10:25N 47°39' W 122°12'0 0.0
2016-Jun-14 09:10N 47°39' W 122°12'0 0.0
2016-Jun-14 08:31N 47°39' W 122°12'0 0.0
2016-Jun-14 07:28N 47°39' W 122°12'0 0.0
2016-Jun-14 04:28N 47°39' W 122°12'0 0.0
2016-Jun-14 03:25N 47°39' W 122°12'0 0.0
2016-Jun-14 02:31N 47°39' W 122°12'0 0.0
2016-Jun-14 01:31N 47°39' W 122°12'0 0.0
2016-Jun-14 00:19N 47°39' W 122°12'0 0.0
2016-Jun-13 23:31N 47°39' W 122°12'  

Dump ship's entire track history